Messwerte Camarillo

Temperatur

Temperatur
°C
1624039200 11.00 11.00 21
1624042800 12.00 12.00 22
1624046400 13.00 13.00 23
1624050000 14.00 14.00 23
1624053600 15.00 15.00 23
1624057200 16.00 16.00 24
1624060800 17.00 17.00 23
1624064400 18.00 18.00 21
1624068000 19.00 19.00
1624071600 20.00 20.00 19
1624075200 21.00 21.00 19
1624078800 22.00 22.00 19
1624082400 23.00 23.00 19
1624086000 0.00 0.00 18
1624089600 1.00 1.00
1624093200 2.00 2.00 18
1624096800 3.00 3.00 18
1624100400 4.00 4.00 18
1624104000 5.00 5.00 18
1624107600 6.00 6.00 18
1624111200 7.00 7.00 18
1624114800 8.00 8.00 19
1624118400 9.00 9.00 18
1624122000 10.00 10.00 19

Aktuellste Messwerte

Wettercharakter
Wetter: bedeckt
Temperatur
19 °C
Feuchtigkeit
80 %
Wind
10 km/hWindrichtung: Südwest
Luftdruck
1010 hPa
Messzeit: 19. Juni 2021, 11.00Datenquelle: METAR

Weitere Messstationen in der Nähe

Messstation Temperatur Entfernung
Point Mugu 17 °C 12 km
Oxnard 17 °C 12 km
Palmdale, Burbank 23 °C 52 km
Los Angeles 18 °C 53 km
Van Nuys 26 °C 54 km
Los Angeles 24 °C 62 km
Santa Monica 18 °C 62 km

Wind

Windrichtung Böen Mittelwind
° km/h km/h
1624039200 11.00 10.00 - 11.00 250° 10
1624042800 12.00 11.00 - 12.00 200° 15
1624046400 13.00 12.00 - 13.00 230° 15
1624050000 14.00 13.00 - 14.00 230° 15
1624053600 15.00 14.00 - 15.00 230° 20
1624057200 16.00 15.00 - 16.00 240° 20
1624060800 17.00 16.00 - 17.00 210° 20
1624064400 18.00 17.00 - 18.00 210° 15
1624068000 19.00 18.00 - 19.00
1624071600 20.00 19.00 - 20.00 210° 10
1624075200 21.00 20.00 - 21.00 210° 5
1624078800 22.00 21.00 - 22.00 220° 10
1624082400 23.00 22.00 - 23.00 0
1624086000 0.00 23.00 - 0.00 210° 5
1624089600 1.00 0.00 - 1.00
1624093200 2.00 1.00 - 2.00 190° 0
1624096800 3.00 2.00 - 3.00 0
1624100400 4.00 3.00 - 4.00 0
1624104000 5.00 4.00 - 5.00 0
1624107600 6.00 5.00 - 6.00 0
1624111200 7.00 6.00 - 7.00 0
1624114800 8.00 7.00 - 8.00 230° 5
1624118400 9.00 8.00 - 9.00 230° 10
1624122000 10.00 9.00 - 10.00 210° 10

Ihre Wetterstation

Fehlt Ihre Wetterstation auf unserem Portal?

Schreiben Sie an network@meteonews.ch

Klima

Wann ist es am wärmsten? Wann regnet es am wenigsten? Unsere Klimadaten geben Auskunft.